createdAt,value
2022-11-19T00:00:16.699Z,21.41
2022-11-19T00:01:20.955Z,21.41
2022-11-19T00:02:25.218Z,21.41
2022-11-19T00:03:29.551Z,21.41
2022-11-19T00:04:33.803Z,21.4
2022-11-19T00:05:38.018Z,21.39
2022-11-19T00:06:42.243Z,21.36
2022-11-19T00:07:46.482Z,21.38
2022-11-19T00:08:50.679Z,21.36
2022-11-19T00:09:54.891Z,21.37
2022-11-19T00:10:59.179Z,21.35
2022-11-19T00:12:10.526Z,21.34
2022-11-19T00:13:14.738Z,21.36
2022-11-19T00:14:18.980Z,21.36
2022-11-19T00:15:23.178Z,21.35
2022-11-19T00:16:27.413Z,21.33
2022-11-19T00:17:31.630Z,21.33
2022-11-19T00:18:35.888Z,21.34
2022-11-19T00:19:40.138Z,21.35
2022-11-19T00:20:44.370Z,21.34
2022-11-19T00:21:48.847Z,21.33
2022-11-19T00:22:53.095Z,21.33
2022-11-19T00:23:57.318Z,21.28
2022-11-19T00:25:01.529Z,21.27
2022-11-19T00:26:05.786Z,21.28
2022-11-19T00:27:10.011Z,21.31
2022-11-19T00:28:14.232Z,21.3
2022-11-19T00:29:18.522Z,21.29
2022-11-19T00:30:46.721Z,21.27
2022-11-19T00:31:52.210Z,21.3
2022-11-19T00:32:56.473Z,21.3
2022-11-19T00:34:00.670Z,21.29
2022-11-19T00:35:04.887Z,21.28
2022-11-19T00:36:09.102Z,21.31
2022-11-19T00:37:13.307Z,21.28
2022-11-19T00:38:17.537Z,21.28
2022-11-19T00:39:22.315Z,21.28
2022-11-19T00:40:26.641Z,21.29
2022-11-19T00:41:30.860Z,21.3
2022-11-19T00:42:35.079Z,21.27
2022-11-19T00:43:39.324Z,21.3
2022-11-19T00:44:43.552Z,21.28
2022-11-19T00:45:47.794Z,21.27
2022-11-19T00:46:52.014Z,21.28
2022-11-19T00:47:56.233Z,21.27
2022-11-19T00:49:00.456Z,21.28
2022-11-19T00:50:04.676Z,21.24
2022-11-19T00:51:08.916Z,21.24
2022-11-19T00:52:13.136Z,21.25
2022-11-19T00:53:17.396Z,21.24
2022-11-19T00:54:21.603Z,21.21
2022-11-19T00:55:25.824Z,21.19
2022-11-19T00:56:30.033Z,21.21
2022-11-19T00:57:34.256Z,21.21
2022-11-19T00:58:38.488Z,21.18
2022-11-19T00:59:42.720Z,21.17
2022-11-19T01:00:46.985Z,21.19
2022-11-19T01:01:51.340Z,21.2
2022-11-19T01:02:55.602Z,21.2
2022-11-19T01:03:59.873Z,21.2
2022-11-19T01:05:04.098Z,21.19
2022-11-19T01:06:08.317Z,21.21
2022-11-19T01:07:12.634Z,21.22
2022-11-19T01:08:17.054Z,21.22
2022-11-19T01:09:22.397Z,21.23
2022-11-19T01:10:26.640Z,21.21
2022-11-19T01:11:30.846Z,21.22
2022-11-19T01:12:35.322Z,21.21
2022-11-19T01:13:39.557Z,21.21
2022-11-19T01:14:43.783Z,21.19
2022-11-19T01:15:49.025Z,21.18
2022-11-19T01:16:53.237Z,21.18
2022-11-19T01:17:57.447Z,21.17
2022-11-19T01:19:01.730Z,21.18
2022-11-19T01:20:05.980Z,21.18
2022-11-19T01:21:10.402Z,21.18
2022-11-19T01:22:14.654Z,21.18
2022-11-19T01:23:18.870Z,21.17
2022-11-19T01:24:23.154Z,21.16
2022-11-19T01:25:27.390Z,21.13
2022-11-19T01:26:31.639Z,21.17
2022-11-19T01:27:35.845Z,21.18
2022-11-19T01:28:40.062Z,21.15
2022-11-19T01:29:44.269Z,21.15
2022-11-19T01:30:48.483Z,21.17
2022-11-19T01:31:52.708Z,21.16
2022-11-19T01:32:56.939Z,21.15
2022-11-19T01:34:01.227Z,21.15
2022-11-19T01:35:05.493Z,21.15
2022-11-19T01:36:09.767Z,21.18
2022-11-19T01:37:13.981Z,21.15
2022-11-19T01:38:18.198Z,21.14
2022-11-19T01:39:22.406Z,21.13
2022-11-19T01:40:26.854Z,21.1
2022-11-19T01:41:31.103Z,21.12
2022-11-19T01:42:35.345Z,21.12
2022-11-19T01:43:39.569Z,21.1
2022-11-19T01:44:43.809Z,21.12
2022-11-19T01:45:48.039Z,21.13
2022-11-19T01:46:52.294Z,21.13
2022-11-19T01:47:56.512Z,21.12
2022-11-19T01:49:00.704Z,21.1
2022-11-19T01:50:04.981Z,21.09
2022-11-19T01:51:09.197Z,21.1
2022-11-19T01:52:13.427Z,21.09
2022-11-19T01:53:17.655Z,21.08
2022-11-19T01:54:21.889Z,21.08
2022-11-19T01:55:26.131Z,21.08
2022-11-19T01:56:30.346Z,21.08
2022-11-19T01:57:34.568Z,21.08
2022-11-19T01:58:38.777Z,21.05
2022-11-19T01:59:43.013Z,21.06
2022-11-19T02:00:47.238Z,21.06
2022-11-19T02:01:51.468Z,21.06
2022-11-19T02:02:55.702Z,21.05
2022-11-19T02:03:59.942Z,21.03
2022-11-19T02:05:04.192Z,21.04
2022-11-19T02:06:08.411Z,21.03
2022-11-19T02:07:12.687Z,21.01
2022-11-19T02:08:17.122Z,21.03
2022-11-19T02:09:21.556Z,21.03
2022-11-19T02:10:25.910Z,21.02
2022-11-19T02:11:30.112Z,21.03
2022-11-19T02:12:34.322Z,21
2022-11-19T02:13:38.575Z,20.98
2022-11-19T02:14:42.837Z,20.97
2022-11-19T02:15:47.056Z,20.99
2022-11-19T02:16:51.492Z,21
2022-11-19T02:17:55.733Z,21
2022-11-19T02:18:59.947Z,21
2022-11-19T02:20:04.154Z,21
2022-11-19T02:21:08.365Z,21.02
2022-11-19T02:22:12.715Z,20.99
2022-11-19T02:23:16.935Z,20.99
2022-11-19T02:24:22.178Z,20.99
2022-11-19T02:25:26.627Z,20.99
2022-11-19T02:26:30.832Z,20.99
2022-11-19T02:27:35.036Z,21
2022-11-19T02:28:39.249Z,20.98
2022-11-19T02:29:43.531Z,20.96
2022-11-19T02:30:47.761Z,20.93
2022-11-19T02:31:51.974Z,20.93
2022-11-19T02:32:56.203Z,20.95
2022-11-19T02:34:00.437Z,20.96
2022-11-19T02:35:04.677Z,20.96
2022-11-19T02:36:08.901Z,20.94
2022-11-19T02:37:13.100Z,20.97
2022-11-19T02:38:17.332Z,20.96
2022-11-19T02:39:21.680Z,20.92
2022-11-19T02:40:26.013Z,20.92
2022-11-19T02:41:30.243Z,20.93
2022-11-19T02:42:34.472Z,20.92
2022-11-19T02:43:38.715Z,20.91
2022-11-19T02:44:42.983Z,20.92
2022-11-19T02:45:47.192Z,20.91
2022-11-19T02:46:51.409Z,20.89
2022-11-19T02:47:55.621Z,20.91
2022-11-19T02:48:59.896Z,20.89
2022-11-19T02:50:04.146Z,20.92
2022-11-19T02:51:08.402Z,20.91
2022-11-19T02:52:12.616Z,20.9
2022-11-19T02:53:16.869Z,20.9
2022-11-19T02:54:21.094Z,20.9
2022-11-19T02:55:25.310Z,20.89
2022-11-19T02:56:29.535Z,20.9
2022-11-19T02:57:33.760Z,20.9
2022-11-19T02:58:37.987Z,20.89
2022-11-19T02:59:42.188Z,20.86
2022-11-19T03:00:46.414Z,20.88
2022-11-19T03:01:50.678Z,20.87
2022-11-19T03:02:55.161Z,20.88
2022-11-19T03:03:59.406Z,20.86
2022-11-19T03:05:03.654Z,20.85
2022-11-19T03:06:07.869Z,20.85
2022-11-19T03:07:12.117Z,20.85
2022-11-19T03:08:16.598Z,20.88
2022-11-19T03:09:21.064Z,20.85
2022-11-19T03:10:25.461Z,20.87
2022-11-19T03:11:29.692Z,20.85
2022-11-19T03:12:34.002Z,20.85
2022-11-19T03:13:38.196Z,20.83
2022-11-19T03:14:42.443Z,20.83
2022-11-19T03:15:46.677Z,20.81
2022-11-19T03:16:50.937Z,20.82
2022-11-19T03:17:55.181Z,20.81
2022-11-19T03:18:59.416Z,20.83
2022-11-19T03:20:03.670Z,20.82
2022-11-19T03:21:07.942Z,20.8
2022-11-19T03:22:12.203Z,20.8
2022-11-19T03:23:16.419Z,20.79
2022-11-19T03:24:20.631Z,20.81
2022-11-19T03:25:24.864Z,20.81
2022-11-19T03:26:29.082Z,20.81
2022-11-19T03:27:33.325Z,20.8
2022-11-19T03:28:37.592Z,20.79
2022-11-19T03:29:41.806Z,20.78
2022-11-19T03:30:46.050Z,20.77
2022-11-19T03:31:50.262Z,20.76
2022-11-19T03:32:54.719Z,20.77
2022-11-19T03:33:58.990Z,20.76
2022-11-19T03:35:03.219Z,20.77
2022-11-19T03:36:07.450Z,20.77
2022-11-19T03:37:11.693Z,20.76
2022-11-19T03:38:15.947Z,20.75
2022-11-19T03:39:20.333Z,20.75
2022-11-19T03:40:25.170Z,20.75
2022-11-19T03:41:29.469Z,20.76
2022-11-19T03:42:33.684Z,20.76
2022-11-19T03:43:37.898Z,20.76
2022-11-19T03:44:42.226Z,20.77
2022-11-19T03:45:46.464Z,20.75
2022-11-19T03:46:50.700Z,20.74
2022-11-19T03:47:54.915Z,20.73
2022-11-19T03:48:59.151Z,20.74
2022-11-19T03:50:03.381Z,20.73
2022-11-19T03:51:07.627Z,20.74
2022-11-19T03:52:11.842Z,20.72
2022-11-19T03:53:16.036Z,20.72
2022-11-19T03:54:20.250Z,20.71
2022-11-19T03:55:24.493Z,20.73
2022-11-19T03:56:28.712Z,20.72
2022-11-19T03:57:32.927Z,20.72
2022-11-19T03:58:37.120Z,20.71
2022-11-19T03:59:41.346Z,20.71
2022-11-19T04:00:45.586Z,20.72
2022-11-19T04:01:49.856Z,20.73
2022-11-19T04:02:54.175Z,20.74
2022-11-19T04:03:58.481Z,20.76
2022-11-19T04:05:02.708Z,20.76
2022-11-19T04:06:06.930Z,20.75
2022-11-19T04:07:11.152Z,20.73
2022-11-19T04:08:15.586Z,20.73
2022-11-19T04:09:20.102Z,20.72
2022-11-19T04:10:25.066Z,20.7
2022-11-19T04:11:29.296Z,20.7
2022-11-19T04:12:33.530Z,20.69
2022-11-19T04:13:37.759Z,20.69
2022-11-19T04:14:42.045Z,20.67
2022-11-19T04:15:46.309Z,20.67
2022-11-19T04:16:53.577Z,20.67
2022-11-19T04:17:57.803Z,20.67
2022-11-19T04:19:02.003Z,20.67
2022-11-19T04:20:06.258Z,20.67
2022-11-19T04:21:10.487Z,20.66
2022-11-19T04:22:14.727Z,20.66
2022-11-19T04:23:18.958Z,20.66
2022-11-19T04:24:23.210Z,20.67
2022-11-19T04:25:27.431Z,20.66
2022-11-19T04:26:31.647Z,20.66
2022-11-19T04:27:35.876Z,20.66
2022-11-19T04:28:40.133Z,20.66
2022-11-19T04:29:44.370Z,20.65
2022-11-19T04:30:48.588Z,20.66
2022-11-19T04:31:55.091Z,20.65
2022-11-19T04:32:59.305Z,20.64
2022-11-19T04:34:03.799Z,20.65
2022-11-19T04:35:08.054Z,20.65
2022-11-19T04:36:12.258Z,20.65
2022-11-19T04:37:16.524Z,20.66
2022-11-19T04:38:20.762Z,20.66
2022-11-19T04:39:24.960Z,20.66
2022-11-19T04:40:29.191Z,20.68
2022-11-19T04:41:33.420Z,20.69
2022-11-19T04:42:37.699Z,20.68
2022-11-19T04:43:41.931Z,20.72
2022-11-19T04:44:46.166Z,20.69
2022-11-19T04:45:50.369Z,20.68
2022-11-19T04:46:54.593Z,20.67
2022-11-19T04:47:58.934Z,20.66
2022-11-19T04:49:03.188Z,20.67
2022-11-19T04:50:07.424Z,20.68
2022-11-19T04:51:11.678Z,20.73
2022-11-19T04:52:15.894Z,20.73
2022-11-19T04:53:20.155Z,20.73
2022-11-19T04:54:24.387Z,20.71
2022-11-19T04:55:28.621Z,20.67
2022-11-19T04:56:32.832Z,20.65
2022-11-19T04:57:37.067Z,20.65
2022-11-19T04:58:41.322Z,20.65
2022-11-19T04:59:45.548Z,20.67
2022-11-19T05:00:49.751Z,20.65
2022-11-19T05:01:54.042Z,20.65
2022-11-19T05:02:58.678Z,20.65
2022-11-19T05:04:02.900Z,20.64
2022-11-19T05:05:07.106Z,20.64
2022-11-19T05:06:11.336Z,20.7
2022-11-19T05:07:15.888Z,20.79
2022-11-19T05:08:20.307Z,20.87
2022-11-19T05:09:24.554Z,20.93
2022-11-19T05:10:28.780Z,21.03
2022-11-19T05:11:33.015Z,21.11
2022-11-19T05:12:37.208Z,21.17
2022-11-19T05:13:41.464Z,21.22
2022-11-19T05:14:45.691Z,21.27
2022-11-19T05:15:49.934Z,21.29
2022-11-19T05:16:54.155Z,21.34
2022-11-19T05:17:58.373Z,21.35
2022-11-19T05:19:02.613Z,21.38
2022-11-19T05:20:07.909Z,21.38
2022-11-19T05:21:12.118Z,21.39
2022-11-19T05:22:16.340Z,21.39
2022-11-19T05:23:20.587Z,21.4
2022-11-19T05:24:24.795Z,21.4
2022-11-19T05:25:29.029Z,21.4
2022-11-19T05:26:33.251Z,21.4
2022-11-19T05:27:37.487Z,21.38
2022-11-19T05:28:41.703Z,21.41
2022-11-19T05:29:45.962Z,21.43
2022-11-19T05:30:50.192Z,21.47
2022-11-19T05:31:54.433Z,21.53
2022-11-19T05:32:58.652Z,21.61
2022-11-19T05:34:02.858Z,21.72
2022-11-19T05:35:07.085Z,21.81
2022-11-19T05:36:11.315Z,21.9
2022-11-19T05:37:15.529Z,22.05
2022-11-19T05:38:19.737Z,22.13
2022-11-19T05:39:24.445Z,22.24
2022-11-19T05:40:30.064Z,22.34
2022-11-19T05:41:34.330Z,22.4
2022-11-19T05:42:38.545Z,22.48
2022-11-19T05:43:42.767Z,22.55
2022-11-19T05:44:46.985Z,22.63
2022-11-19T05:45:51.240Z,22.7
2022-11-19T05:46:55.501Z,22.75
2022-11-19T05:47:59.727Z,22.75
2022-11-19T05:49:03.950Z,22.79
2022-11-19T05:50:08.195Z,22.8
2022-11-19T05:51:12.458Z,22.83
2022-11-19T05:52:16.774Z,22.85
2022-11-19T05:53:20.982Z,22.87
2022-11-19T05:54:25.243Z,22.88
2022-11-19T05:55:29.709Z,22.92
2022-11-19T05:56:33.949Z,22.94
2022-11-19T05:57:38.152Z,22.98
2022-11-19T05:58:42.379Z,22.97
2022-11-19T05:59:46.593Z,23
2022-11-19T06:00:50.811Z,23.03
2022-11-19T06:01:55.046Z,23.06
2022-11-19T06:02:59.314Z,23.1
2022-11-19T06:04:03.731Z,23.13
2022-11-19T06:05:07.943Z,23.1
2022-11-19T06:06:12.228Z,23.07
2022-11-19T06:07:16.501Z,23.07
2022-11-19T06:10:07.449Z,23.02
2022-11-19T06:11:11.657Z,22.97
2022-11-19T06:12:15.938Z,22.93
2022-11-19T06:13:20.167Z,22.87
2022-11-19T06:14:24.649Z,22.82
2022-11-19T06:15:28.864Z,22.82
2022-11-19T06:16:33.070Z,22.82
2022-11-19T06:17:37.415Z,22.8
2022-11-19T06:18:41.638Z,22.78
2022-11-19T06:19:45.845Z,22.73
2022-11-19T06:20:50.262Z,22.7
2022-11-19T06:21:55.480Z,22.65
2022-11-19T06:22:59.896Z,22.57
2022-11-19T06:24:04.117Z,22.56
2022-11-19T06:25:08.347Z,22.52
2022-11-19T06:26:12.604Z,22.48
2022-11-19T06:27:16.869Z,22.44
2022-11-19T06:28:21.113Z,22.43
2022-11-19T06:29:25.363Z,22.4
2022-11-19T06:30:29.593Z,22.39
2022-11-19T06:31:33.820Z,22.37
2022-11-19T06:32:38.037Z,22.34
2022-11-19T06:33:42.259Z,22.29
2022-11-19T06:34:46.475Z,22.28
2022-11-19T06:35:50.736Z,22.26
2022-11-19T06:36:55.039Z,22.24
2022-11-19T06:37:59.239Z,22.21
2022-11-19T06:39:03.463Z,22.21
2022-11-19T06:40:07.677Z,22.2
2022-11-19T06:41:11.896Z,22.19
2022-11-19T06:42:16.140Z,22.17
2022-11-19T06:43:20.360Z,22.17
2022-11-19T06:44:24.591Z,22.14
2022-11-19T06:45:29.064Z,22.13
2022-11-19T06:46:33.276Z,22.12
2022-11-19T06:47:37.549Z,22.13
2022-11-19T06:48:41.826Z,22.13
2022-11-19T06:49:46.055Z,22.14
2022-11-19T06:50:50.259Z,22.18
2022-11-19T06:51:54.470Z,22.24
2022-11-19T06:52:58.689Z,22.33
2022-11-19T06:54:02.911Z,22.44
2022-11-19T06:55:07.172Z,22.61
2022-11-19T06:56:11.382Z,22.74
2022-11-19T06:57:15.601Z,22.84
2022-11-19T06:58:19.861Z,22.96
2022-11-19T06:59:24.102Z,22.96
2022-11-19T07:00:28.347Z,22.91
2022-11-19T07:01:32.829Z,22.82
2022-11-19T07:02:37.307Z,22.74
2022-11-19T07:03:41.524Z,22.67
2022-11-19T07:04:45.783Z,22.63
2022-11-19T07:05:50.007Z,22.56
2022-11-19T07:06:54.223Z,22.52
2022-11-19T07:08:02.727Z,22.5
2022-11-19T07:09:07.458Z,22.46
2022-11-19T07:10:11.658Z,22.44
2022-11-19T07:11:15.878Z,22.42
2022-11-19T07:12:20.089Z,22.4
2022-11-19T07:13:24.336Z,22.41
2022-11-19T07:14:28.602Z,22.45
2022-11-19T07:15:32.829Z,22.48
2022-11-19T07:16:37.071Z,22.51
2022-11-19T07:17:41.274Z,22.54
2022-11-19T07:18:45.498Z,22.56
2022-11-19T07:19:49.781Z,22.58
2022-11-19T07:20:54.022Z,22.62
2022-11-19T07:21:58.292Z,22.61
2022-11-19T07:23:02.564Z,22.59
2022-11-19T07:24:06.795Z,22.61
2022-11-19T07:25:11.056Z,22.61
2022-11-19T07:26:15.310Z,22.61
2022-11-19T07:27:19.495Z,22.6
2022-11-19T07:28:23.702Z,22.61
2022-11-19T07:29:27.947Z,22.61
2022-11-19T07:30:32.257Z,22.58
2022-11-19T07:31:36.499Z,22.56
2022-11-19T07:32:43.260Z,22.56
2022-11-19T07:33:47.482Z,22.56
2022-11-19T07:34:51.719Z,22.57
2022-11-19T07:35:55.947Z,22.59
2022-11-19T07:37:00.267Z,22.59
2022-11-19T07:38:04.474Z,22.6
2022-11-19T07:39:08.707Z,22.6
2022-11-19T07:40:12.918Z,22.53
2022-11-19T07:41:17.122Z,22.45
2022-11-19T07:42:21.372Z,22.41
2022-11-19T07:43:25.630Z,22.4
2022-11-19T07:44:29.854Z,22.44
2022-11-19T07:45:34.210Z,22.43
2022-11-19T07:46:40.645Z,22.4
2022-11-19T07:47:46.273Z,22.41
2022-11-19T07:48:50.647Z,22.43
2022-11-19T07:49:54.881Z,22.41
2022-11-19T07:50:59.129Z,22.4
2022-11-19T07:52:03.342Z,22.4
2022-11-19T07:53:07.581Z,22.39
2022-11-19T07:54:11.818Z,22.38
2022-11-19T07:55:16.137Z,22.38
2022-11-19T07:56:20.372Z,22.4
2022-11-19T07:57:29.798Z,22.41
2022-11-19T07:58:34.309Z,22.49
2022-11-19T07:59:38.523Z,22.58
2022-11-19T08:00:42.764Z,22.69
2022-11-19T08:01:47.051Z,22.81
2022-11-19T08:02:51.433Z,22.99
2022-11-19T08:03:56.685Z,23.11
2022-11-19T08:05:01.123Z,23.22
2022-11-19T08:06:05.351Z,23.32
2022-11-19T08:07:09.650Z,23.39
2022-11-19T08:08:14.085Z,23.42
2022-11-19T08:09:18.595Z,23.44
2022-11-19T08:10:26.532Z,23.42
2022-11-19T08:11:35.732Z,23.42
2022-11-19T08:12:39.978Z,23.42
2022-11-19T08:13:44.225Z,23.41
2022-11-19T08:14:48.475Z,23.41
2022-11-19T08:15:52.725Z,23.35
2022-11-19T08:16:56.948Z,23.31
2022-11-19T08:18:01.178Z,23.31
2022-11-19T08:19:05.405Z,23.29
2022-11-19T08:20:09.610Z,23.24
2022-11-19T08:21:13.841Z,23.24
2022-11-19T08:22:18.073Z,23.22
2022-11-19T08:23:22.370Z,23.21
2022-11-19T08:24:26.597Z,23.2
2022-11-19T08:25:30.827Z,23.17
2022-11-19T08:26:35.036Z,23.13
2022-11-19T08:27:39.283Z,23.11
2022-11-19T08:28:44.537Z,23.11
2022-11-19T08:29:48.774Z,23.08
2022-11-19T08:30:52.985Z,23.05
2022-11-19T08:31:57.248Z,23.01
2022-11-19T08:33:01.493Z,23
2022-11-19T08:34:05.746Z,22.99
2022-11-19T08:35:09.991Z,22.91
2022-11-19T08:36:14.379Z,22.85
2022-11-19T08:37:18.628Z,22.79
2022-11-19T08:38:22.850Z,22.73
2022-11-19T08:39:27.057Z,22.66
2022-11-19T08:40:31.303Z,22.62
2022-11-19T08:41:35.514Z,22.63
2022-11-19T08:42:39.744Z,22.63
2022-11-19T08:43:43.993Z,22.63
2022-11-19T08:44:48.210Z,22.64
2022-11-19T08:45:52.436Z,22.63
2022-11-19T08:46:56.678Z,22.61
2022-11-19T08:48:00.944Z,22.58
2022-11-19T08:49:05.564Z,22.56
2022-11-19T08:50:09.787Z,22.53
2022-11-19T08:51:14.025Z,22.54
2022-11-19T08:52:18.316Z,22.54
2022-11-19T08:53:22.517Z,22.53
2022-11-19T08:54:26.715Z,22.52
2022-11-19T08:55:30.935Z,22.53
2022-11-19T08:56:35.247Z,22.54
2022-11-19T08:57:39.590Z,22.56
2022-11-19T08:58:43.805Z,22.58
2022-11-19T08:59:48.016Z,22.65
2022-11-19T09:00:52.271Z,22.67
2022-11-19T09:01:56.666Z,22.69
2022-11-19T09:03:01.933Z,22.71
2022-11-19T09:04:06.161Z,22.72
2022-11-19T09:05:14.361Z,22.71
2022-11-19T09:06:18.787Z,22.69
2022-11-19T09:07:23.086Z,22.73
2022-11-19T09:08:27.448Z,22.74
2022-11-19T09:09:31.688Z,22.76
2022-11-19T09:10:35.932Z,22.76
2022-11-19T09:11:42.798Z,22.84
2022-11-19T09:12:47.239Z,22.96
2022-11-19T09:13:51.467Z,23.06
2022-11-19T09:14:55.706Z,23.21
2022-11-19T09:15:59.941Z,23.32
2022-11-19T09:17:04.161Z,23.46
2022-11-19T09:18:08.354Z,23.54
2022-11-19T09:19:12.583Z,23.62
2022-11-19T09:20:16.846Z,23.69
2022-11-19T09:21:21.085Z,23.69
2022-11-19T09:22:25.322Z,23.74
2022-11-19T09:23:29.573Z,23.78
2022-11-19T09:24:33.782Z,23.76
2022-11-19T09:25:38.043Z,23.76
2022-11-19T09:26:42.270Z,23.75
2022-11-19T09:27:52.543Z,23.71
2022-11-19T09:28:56.813Z,23.7
2022-11-19T09:30:01.031Z,23.68
2022-11-19T09:31:07.071Z,23.64
2022-11-19T09:32:11.540Z,23.64
2022-11-19T09:33:15.760Z,23.63
2022-11-19T09:34:20.173Z,23.58
2022-11-19T09:35:25.017Z,23.62
2022-11-19T09:36:29.277Z,23.56
2022-11-19T09:37:33.488Z,23.55
2022-11-19T09:38:37.698Z,23.52
2022-11-19T09:39:41.909Z,23.46
2022-11-19T09:40:46.136Z,23.47
2022-11-19T09:41:50.382Z,23.43
2022-11-19T09:42:54.597Z,23.42
2022-11-19T09:43:58.832Z,23.4
2022-11-19T09:45:03.247Z,23.4
2022-11-19T09:46:07.474Z,23.36
2022-11-19T09:47:12.033Z,23.35
2022-11-19T09:48:16.249Z,23.33
2022-11-19T09:49:20.513Z,23.31
2022-11-19T09:50:24.861Z,23.31
2022-11-19T09:51:29.090Z,23.27
2022-11-19T09:52:33.342Z,23.27
2022-11-19T09:53:37.548Z,23.25
2022-11-19T09:54:41.781Z,23.28
2022-11-19T09:55:45.993Z,23.25
2022-11-19T09:56:50.250Z,23.24
2022-11-19T09:57:54.522Z,23.24
2022-11-19T09:58:58.749Z,23.25
2022-11-19T10:00:03.083Z,23.21
2022-11-19T10:01:07.328Z,23.2
2022-11-19T10:02:11.559Z,23.2
2022-11-19T10:03:16.825Z,23.16
2022-11-19T10:04:21.952Z,23.13
2022-11-19T10:05:26.632Z,23.12
2022-11-19T10:06:30.851Z,23.11
2022-11-19T10:07:35.099Z,23.11
2022-11-19T10:08:39.458Z,23.08
2022-11-19T10:09:43.693Z,23.06
2022-11-19T10:10:47.921Z,23.05
2022-11-19T10:11:52.154Z,23.03
2022-11-19T10:12:56.362Z,22.99
2022-11-19T10:14:00.566Z,22.97
2022-11-19T10:15:04.784Z,22.92
2022-11-19T10:16:09.029Z,22.91
2022-11-19T10:17:13.257Z,22.9
2022-11-19T10:18:17.540Z,22.9
2022-11-19T10:19:21.805Z,22.89
2022-11-19T10:20:26.182Z,22.91
2022-11-19T10:21:30.387Z,22.87
2022-11-19T10:22:34.653Z,22.85
2022-11-19T10:23:38.906Z,22.85
2022-11-19T10:24:43.120Z,22.85
2022-11-19T10:25:47.361Z,22.84
2022-11-19T10:26:51.598Z,22.8
2022-11-19T10:27:55.851Z,22.8
2022-11-19T10:29:00.109Z,22.8
2022-11-19T10:30:04.340Z,22.8
2022-11-19T10:31:08.578Z,22.76
2022-11-19T10:32:12.815Z,22.73
2022-11-19T10:33:17.055Z,22.72
2022-11-19T10:34:21.327Z,22.72
2022-11-19T10:35:26.621Z,22.7
2022-11-19T10:36:30.824Z,22.69
2022-11-19T10:37:35.054Z,22.69
2022-11-19T10:38:39.323Z,22.69
2022-11-19T10:39:43.580Z,22.69
2022-11-19T10:40:47.831Z,22.71
2022-11-19T10:41:52.055Z,22.72
2022-11-19T10:42:56.272Z,22.77
2022-11-19T10:44:00.563Z,22.84
2022-11-19T10:45:04.796Z,22.94
2022-11-19T10:46:09.019Z,23.07
2022-11-19T10:47:13.273Z,23.18
2022-11-19T10:48:17.495Z,23.31
2022-11-19T10:49:21.850Z,23.43
2022-11-19T10:50:26.196Z,23.53
2022-11-19T10:51:30.424Z,23.62
2022-11-19T10:52:34.661Z,23.72
2022-11-19T10:53:38.892Z,23.79
2022-11-19T10:54:43.495Z,23.83
2022-11-19T10:55:51.448Z,23.89
2022-11-19T10:56:58.399Z,23.94
2022-11-19T10:58:02.626Z,23.91
2022-11-19T10:59:06.836Z,23.98
2022-11-19T11:00:11.101Z,24.01
2022-11-19T11:01:15.364Z,24.02
2022-11-19T11:02:25.082Z,24.05
2022-11-19T11:03:31.979Z,24.06
2022-11-19T11:04:36.222Z,24.07
2022-11-19T11:05:40.481Z,23.99
2022-11-19T11:06:44.676Z,23.89
2022-11-19T11:07:50.574Z,23.81
2022-11-19T11:08:55.332Z,23.82
2022-11-19T11:09:59.566Z,23.82
2022-11-19T11:11:03.813Z,23.83
2022-11-19T11:12:08.033Z,23.82
2022-11-19T11:13:12.274Z,23.83
2022-11-19T11:14:16.512Z,23.84
2022-11-19T11:15:20.775Z,23.81
2022-11-19T11:16:25.028Z,23.76
2022-11-19T11:17:29.231Z,23.71
2022-11-19T11:18:33.488Z,23.68
2022-11-19T11:19:37.704Z,23.66
2022-11-19T11:20:41.906Z,23.66
2022-11-19T11:21:46.125Z,23.63
2022-11-19T11:22:50.380Z,23.63
2022-11-19T11:23:54.653Z,23.6
2022-11-19T11:25:02.798Z,23.56
2022-11-19T11:26:10.889Z,23.55
2022-11-19T11:27:15.115Z,23.5
2022-11-19T11:28:19.335Z,23.48
2022-11-19T11:29:23.609Z,23.44
2022-11-19T11:30:27.853Z,23.43
2022-11-19T11:31:32.080Z,23.43
2022-11-19T11:32:36.353Z,23.4
2022-11-19T11:33:40.865Z,23.4
2022-11-19T11:34:45.129Z,23.36
2022-11-19T11:35:49.354Z,23.32
2022-11-19T11:36:53.575Z,23.34
2022-11-19T11:37:57.795Z,23.32
2022-11-19T11:39:02.072Z,23.29
2022-11-19T11:40:06.331Z,23.26
2022-11-19T11:43:09.733Z,23.25
2022-11-19T11:44:13.939Z,23.27
2022-11-19T11:45:18.262Z,23.25
2022-11-19T11:46:22.487Z,23.25
2022-11-19T11:47:26.716Z,23.24
2022-11-19T11:48:30.953Z,23.25
2022-11-19T11:49:35.245Z,23.25
2022-11-19T11:50:39.510Z,23.24
2022-11-19T11:51:43.715Z,23.25
2022-11-19T11:52:47.986Z,23.24
2022-11-19T11:53:52.205Z,23.24
2022-11-19T11:54:56.421Z,23.24
2022-11-19T11:56:00.631Z,23.24
2022-11-19T11:57:04.860Z,23.23
2022-11-19T11:58:09.120Z,23.23
2022-11-19T11:59:13.351Z,23.22
2022-11-19T12:00:17.560Z,23.23
2022-11-19T12:01:22.226Z,23.23
2022-11-19T12:02:27.491Z,23.22
2022-11-19T12:03:31.878Z,23.23
2022-11-19T12:04:56.393Z,23.25
2022-11-19T12:06:00.649Z,23.22
2022-11-19T12:07:04.932Z,23.21
2022-11-19T12:08:09.369Z,23.22
2022-11-19T12:09:13.558Z,23.22
2022-11-19T12:10:17.787Z,23.19
2022-11-19T12:11:22.011Z,23.18
2022-11-19T12:12:26.230Z,23.19
2022-11-19T12:13:30.477Z,23.19
2022-11-19T12:14:34.720Z,23.19
2022-11-19T12:15:38.999Z,23.18
2022-11-19T12:16:43.257Z,23.19
2022-11-19T12:17:47.485Z,23.15
2022-11-19T12:18:51.718Z,23.18
2022-11-19T12:19:55.962Z,23.16
2022-11-19T12:21:00.193Z,23.18
2022-11-19T12:22:06.576Z,23.17
2022-11-19T12:23:10.786Z,23.17
2022-11-19T12:24:15.020Z,23.18
2022-11-19T12:25:19.261Z,23.19
2022-11-19T12:26:23.468Z,23.17
2022-11-19T12:27:27.690Z,23.18
2022-11-19T12:28:32.158Z,23.21
2022-11-19T12:29:36.381Z,23.23
2022-11-19T12:30:40.662Z,23.32
2022-11-19T12:31:44.895Z,23.46
2022-11-19T12:32:49.112Z,23.57
2022-11-19T12:33:53.381Z,23.68
2022-11-19T12:34:57.601Z,23.76
2022-11-19T12:36:01.831Z,23.86
2022-11-19T12:37:06.038Z,23.96
2022-11-19T12:38:10.319Z,23.99
2022-11-19T12:39:14.542Z,24.04
2022-11-19T12:40:19.091Z,24.06
2022-11-19T12:41:23.301Z,24.07
2022-11-19T12:42:27.553Z,24.05
2022-11-19T12:43:31.777Z,24.07
2022-11-19T12:44:36.015Z,24.1
2022-11-19T12:45:40.280Z,24.07
2022-11-19T12:46:44.497Z,24.07
2022-11-19T12:47:48.715Z,24.01
2022-11-19T12:48:52.961Z,23.99
2022-11-19T12:49:57.200Z,23.98
2022-11-19T12:51:01.452Z,23.95
2022-11-19T12:52:05.649Z,23.88
2022-11-19T12:53:09.893Z,23.81
2022-11-19T12:54:16.447Z,23.74
2022-11-19T12:55:36.978Z,23.71
2022-11-19T12:56:41.254Z,23.7
2022-11-19T12:57:45.486Z,23.69
2022-11-19T12:58:49.703Z,23.69
2022-11-19T12:59:53.921Z,23.68
2022-11-19T13:00:58.244Z,23.65
2022-11-19T13:02:02.697Z,23.62
2022-11-19T13:03:06.904Z,23.61
2022-11-19T13:04:11.153Z,23.61
2022-11-19T13:05:15.393Z,23.6
2022-11-19T13:06:19.892Z,23.6
2022-11-19T13:07:24.161Z,23.61
2022-11-19T13:08:28.631Z,23.66
2022-11-19T13:09:32.837Z,23.65
2022-11-19T13:10:37.050Z,23.61
2022-11-19T13:11:41.331Z,23.59
2022-11-19T13:12:45.573Z,23.56
2022-11-19T13:13:49.813Z,23.57
2022-11-19T13:14:55.184Z,23.6
2022-11-19T13:15:59.549Z,23.59
2022-11-19T13:17:03.853Z,23.57
2022-11-19T13:18:08.089Z,23.56
2022-11-19T13:19:12.332Z,23.53
2022-11-19T13:20:16.540Z,23.55
2022-11-19T13:21:21.059Z,23.55
2022-11-19T13:22:25.318Z,23.54
2022-11-19T13:23:29.545Z,23.55
2022-11-19T13:24:33.872Z,23.55
2022-11-19T13:25:38.099Z,23.51
2022-11-19T13:26:42.376Z,23.52
2022-11-19T13:27:46.616Z,23.55
2022-11-19T13:28:50.850Z,23.52
2022-11-19T13:29:55.077Z,23.51
2022-11-19T13:30:59.298Z,23.49
2022-11-19T13:32:03.523Z,23.47
2022-11-19T13:33:07.757Z,23.43
2022-11-19T13:34:12.000Z,23.39
2022-11-19T13:35:16.219Z,23.38
2022-11-19T13:36:20.509Z,23.36
2022-11-19T13:37:24.767Z,23.34
2022-11-19T13:38:29.053Z,23.31
2022-11-19T13:39:33.285Z,23.26
2022-11-19T13:40:37.545Z,23.22
2022-11-19T13:41:41.796Z,23.17
2022-11-19T13:42:54.615Z,23.13
2022-11-19T13:44:35.355Z,23.06
2022-11-19T13:45:39.589Z,23.02
2022-11-19T13:46:43.883Z,23
2022-11-19T13:47:48.104Z,22.97
2022-11-19T13:49:00.185Z,22.95
2022-11-19T13:50:04.414Z,22.92
2022-11-19T13:51:08.705Z,22.9
2022-11-19T13:52:13.989Z,22.87
2022-11-19T13:53:18.227Z,22.84
2022-11-19T13:54:22.451Z,22.82
2022-11-19T13:55:26.667Z,22.81
2022-11-19T13:56:30.876Z,22.8
2022-11-19T13:57:35.119Z,22.77